Terminal Aerodrome Forecast
Issued by NWS Austin/San Antonio, TX

Home | Current Version | Previous Version | Text Only | Print | Product List | Glossary On
Versions: 1 2 3 4 5 6 7 8 9 10 11 12 13 14 15 16 17 18 19 20 21 22 23 24 25 26 27 28 29 30 31 32 33 34 35 36 37 38 39 40 41 42 43 44 45 46 47 48 49 50
499
FTUS44 KEWX 251123
TAFSAT
TAF
KSAT 251123Z 2512/2618 03007KT P6SM -SHRA OVC035
      TEMPO 2512/2516 5SM -TSRA BKN025CB
     FM251900 04007KT P6SM BKN035
     FM260900 34003KT 2SM BR BKN004
     FM261600 03007KT P6SM SCT150 BKN250=

USA.gov is the U.S. government's official web portal to all federal, state and local government web resources and services.